KAMN/AMN METAR and TAF weather

Enter ICAO airport designator
Station Type Date Time Source
KAMN METAR 2020/01/28 05:15 UTC NOAA

KAMN 280515Z AUTO 00000KT 10SM OVC028 01/M01 A2999 RMK AO2 T00081006


Station Type Date Time Source
KAMN Decoded METAR 2020/01/28 05:15 UTC NOAA

Alma, Gratiot Community Airport, MI, United States (KAMN) 43-19-19N 084-41-16W
Jan 28, 2020 - 12:15 AM EST / 2020.01.28 0515 UTC
Wind: Calm:0
Visibility: 10 mile(s):0
Sky conditions: overcast
Temperature: 33.4 F (0.8 C)
Dew Point: 30.9 F (-0.6 C)
Relative Humidity: 90%
Pressure (altimeter): 29.99 in. Hg (1015 hPa)
ob: KAMN 280515Z AUTO 00000KT 10SM OVC028 01/M01 A2999 RMK AO2 T00081006
cycle: 5

Station Type Date Time Source
KAMN TAF UTC NOAA

Error!

Example: see airport list